createdAt,value
2022-12-03T00:00:19.575Z,85.97
2022-12-03T00:03:28.505Z,86.05
2022-12-03T00:06:37.368Z,86.07
2022-12-03T00:09:46.368Z,86.50
2022-12-03T00:12:55.369Z,86.11
2022-12-03T00:16:04.462Z,85.91
2022-12-03T00:19:13.367Z,86.28
2022-12-03T00:22:22.367Z,85.99
2022-12-03T00:25:42.990Z,86.51
2022-12-03T00:28:56.303Z,86.16
2022-12-03T00:32:10.160Z,86.58
2022-12-03T00:35:19.368Z,86.89
2022-12-03T00:38:28.370Z,87.04
2022-12-03T00:41:37.365Z,87.07
2022-12-03T00:44:46.364Z,87.24
2022-12-03T00:47:55.366Z,86.57
2022-12-03T00:51:04.372Z,87.48
2022-12-03T00:54:13.363Z,86.34
2022-12-03T00:57:22.364Z,86.78
2022-12-03T01:00:31.362Z,86.96
2022-12-03T01:03:40.363Z,86.49
2022-12-03T01:06:49.366Z,86.21
2022-12-03T01:09:58.363Z,86.74
2022-12-03T01:13:07.366Z,87.15
2022-12-03T01:16:16.429Z,86.67
2022-12-03T01:19:25.365Z,87.14
2022-12-03T01:22:34.364Z,86.94
2022-12-03T01:25:43.365Z,87.04
2022-12-03T01:28:52.364Z,86.39
2022-12-03T01:32:22.364Z,86.24
2022-12-03T01:35:31.364Z,86.33
2022-12-03T01:38:40.365Z,86.68
2022-12-03T01:41:49.376Z,86.79
2022-12-03T01:44:58.784Z,86.28
2022-12-03T01:48:07.369Z,86.75
2022-12-03T01:51:17.305Z,86.78
2022-12-03T01:54:46.376Z,86.21
2022-12-03T01:58:07.698Z,85.74
2022-12-03T02:01:23.788Z,85.87
2022-12-03T02:04:34.471Z,86.04
2022-12-03T02:07:44.462Z,86.53
2022-12-03T02:10:53.303Z,86.41
2022-12-03T02:14:11.797Z,86.75
2022-12-03T02:17:25.487Z,86.97
2022-12-03T02:20:40.682Z,86.84
2022-12-03T02:24:10.473Z,87.01
2022-12-03T02:27:19.368Z,86.58
2022-12-03T02:30:34.074Z,86.90
2022-12-03T02:33:50.203Z,87.35
2022-12-03T02:37:04.529Z,87.69
2022-12-03T02:40:17.200Z,87.79
2022-12-03T02:43:26.413Z,87.18
2022-12-03T02:46:38.438Z,87.16
2022-12-03T02:49:48.410Z,87.14
2022-12-03T02:53:06.260Z,87.31
2022-12-03T02:56:22.281Z,87.13
2022-12-03T02:59:31.364Z,86.98
2022-12-03T03:02:49.589Z,86.58
2022-12-03T03:06:04.144Z,87.31
2022-12-03T03:09:17.648Z,86.59
2022-12-03T03:12:28.365Z,86.95
2022-12-03T03:15:44.494Z,87.16
2022-12-03T03:18:57.200Z,86.87
2022-12-03T03:22:11.153Z,87.32
2022-12-03T03:25:26.301Z,86.79
2022-12-03T03:28:43.247Z,87.71
2022-12-03T03:31:59.888Z,87.89
2022-12-03T03:35:13.366Z,87.56
2022-12-03T03:38:23.301Z,87.91
2022-12-03T03:41:40.561Z,88.23
2022-12-03T03:44:53.341Z,88.41
2022-12-03T03:48:08.141Z,88.81
2022-12-03T03:51:19.366Z,88.23
2022-12-03T03:54:29.093Z,88.57
2022-12-03T03:57:37.780Z,88.32
2022-12-03T04:00:47.764Z,88.22
2022-12-03T04:04:00.434Z,88.67
2022-12-03T04:07:06.062Z,89.01
2022-12-03T04:10:44.640Z,88.51
2022-12-03T04:14:01.078Z,89.50
2022-12-03T04:17:13.365Z,89.18
2022-12-03T04:20:22.468Z,89.41
2022-12-03T04:23:31.363Z,89.09
2022-12-03T04:27:01.365Z,89.69
2022-12-03T04:30:10.367Z,89.05
2022-12-03T04:33:38.800Z,89.68
2022-12-03T04:36:49.365Z,89.41
2022-12-03T04:39:59.404Z,89.02
2022-12-03T04:43:08.301Z,89.17
2022-12-03T04:46:17.481Z,89.02
2022-12-03T04:49:26.406Z,88.87
2022-12-03T04:52:39.932Z,89.07
2022-12-03T04:55:52.660Z,89.09
2022-12-03T04:59:07.233Z,89.50
2022-12-03T05:02:22.436Z,88.68
2022-12-03T05:05:39.952Z,89.57
2022-12-03T05:08:52.627Z,89.62
2022-12-03T05:12:06.009Z,89.69
2022-12-03T05:15:19.365Z,88.94
2022-12-03T05:18:28.376Z,89.07
2022-12-03T05:21:37.363Z,88.57
2022-12-03T05:24:47.406Z,88.51
2022-12-03T05:27:56.300Z,88.82
2022-12-03T05:31:06.578Z,88.17
2022-12-03T05:34:14.712Z,88.48
2022-12-03T05:37:22.781Z,88.10
2022-12-03T05:40:31.683Z,88.35
2022-12-03T05:43:41.410Z,88.40
2022-12-03T05:46:50.309Z,88.49
2022-12-03T06:38:42.740Z,89.84
2022-12-03T06:42:10.781Z,89.13
2022-12-03T06:45:25.757Z,89.19
2022-12-03T06:48:44.923Z,89.06
2022-12-03T06:51:59.697Z,88.76
2022-12-03T06:55:16.434Z,88.85
2022-12-03T06:58:31.182Z,88.80
2022-12-03T07:01:44.266Z,88.47
2022-12-03T07:04:54.981Z,88.51
2022-12-03T07:08:08.550Z,88.41
2022-12-03T07:11:34.780Z,88.17
2022-12-03T07:21:40.081Z,88.06
2022-12-03T07:35:23.599Z,87.64
2022-12-03T07:38:37.293Z,87.46
2022-12-03T07:41:55.956Z,87.29
2022-12-03T07:48:46.754Z,87.46
2022-12-03T07:52:08.417Z,87.28
2022-12-03T07:55:17.450Z,86.44
2022-12-03T08:05:46.493Z,86.67
2022-12-03T08:08:55.538Z,86.48
2022-12-03T08:12:10.482Z,86.32
2022-12-03T08:15:39.331Z,85.55
2022-12-03T08:19:02.961Z,86.35
2022-12-03T08:22:52.627Z,86.11
2022-12-03T08:29:55.784Z,85.91
2022-12-03T08:33:41.715Z,86.32
2022-12-03T08:37:12.947Z,86.25
2022-12-03T08:40:43.696Z,86.55
2022-12-03T08:43:56.809Z,85.72
2022-12-03T08:47:27.322Z,86.20
2022-12-03T08:50:55.527Z,85.76
2022-12-03T08:54:23.885Z,86.08
2022-12-03T09:01:45.905Z,85.64
2022-12-03T09:04:56.486Z,85.93
2022-12-03T09:11:38.710Z,86.46
2022-12-03T09:14:54.551Z,86.40
2022-12-03T09:18:26.449Z,86.94
2022-12-03T09:32:58.733Z,85.22
2022-12-03T09:36:30.204Z,85.19
2022-12-03T09:39:39.963Z,85.40
2022-12-03T09:44:03.171Z,84.39
2022-12-03T09:47:15.332Z,84.22
2022-12-03T09:50:36.370Z,85.22
2022-12-03T09:53:52.113Z,85.45
2022-12-03T10:04:28.019Z,81.89
2022-12-03T10:07:38.515Z,81.44
2022-12-03T10:14:14.283Z,81.47
2022-12-03T10:24:49.772Z,74.40
2022-12-03T10:32:04.672Z,72.97
2022-12-03T10:36:06.343Z,74.45
2022-12-03T10:39:27.563Z,71.81
2022-12-03T10:42:35.881Z,72.61
2022-12-03T10:45:46.038Z,68.31
2022-12-03T10:49:13.501Z,64.41
2022-12-03T10:52:26.152Z,63.12
2022-12-03T10:55:40.302Z,64.14
2022-12-03T10:58:57.135Z,61.80
2022-12-03T11:02:13.059Z,60.08
2022-12-03T11:05:35.125Z,58.45
2022-12-03T11:08:54.716Z,57.77
2022-12-03T11:12:14.063Z,57.67
2022-12-03T11:15:49.581Z,57.09
2022-12-03T11:22:48.655Z,54.57
2022-12-03T11:30:04.980Z,54.29
2022-12-03T11:37:22.991Z,53.20
2022-12-03T11:40:39.795Z,51.25
2022-12-03T11:51:34.012Z,52.45
2022-12-03T11:54:42.357Z,52.44
2022-12-03T12:35:57.139Z,55.20
2022-12-03T12:39:07.029Z,56.39
2022-12-03T12:42:37.779Z,57.25
2022-12-03T12:45:47.415Z,57.99
2022-12-03T12:49:11.350Z,57.78
2022-12-03T12:55:44.826Z,58.79
2022-12-03T12:58:59.889Z,59.11
2022-12-03T13:02:40.326Z,59.34
2022-12-03T13:05:56.778Z,59.48
2022-12-03T13:09:34.176Z,59.47
2022-12-03T13:12:43.618Z,60.96
2022-12-03T13:16:13.475Z,63.39
2022-12-03T13:19:46.707Z,63.64
2022-12-03T13:22:59.471Z,64.30
2022-12-03T13:26:40.536Z,65.39
2022-12-03T13:30:14.413Z,66.38
2022-12-03T13:33:32.848Z,67.79
2022-12-03T13:40:24.079Z,67.96
2022-12-03T13:43:44.499Z,67.95
2022-12-03T13:46:55.033Z,68.41
2022-12-03T13:50:08.571Z,69.14
2022-12-03T13:53:24.942Z,70.04
2022-12-03T13:56:36.067Z,70.70
2022-12-03T13:59:46.599Z,71.22
2022-12-03T14:03:00.606Z,71.98
2022-12-03T14:06:14.592Z,72.87
2022-12-03T14:09:25.471Z,73.01
2022-12-03T14:12:35.112Z,73.27
2022-12-03T14:15:43.579Z,73.76
2022-12-03T14:18:52.683Z,74.01
2022-12-03T14:22:01.591Z,74.41
2022-12-03T14:25:10.578Z,74.81
2022-12-03T14:28:19.382Z,74.88
2022-12-03T14:31:28.528Z,75.45
2022-12-03T14:34:37.367Z,76.13
2022-12-03T14:37:46.395Z,76.32
2022-12-03T14:40:55.373Z,76.87
2022-12-03T14:44:05.005Z,76.82
2022-12-03T14:47:14.718Z,78.17
2022-12-03T14:50:23.433Z,77.56
2022-12-03T14:53:32.425Z,78.44
2022-12-03T14:56:41.422Z,78.54
2022-12-03T15:00:00.165Z,78.77
2022-12-03T15:03:18.236Z,78.95
2022-12-03T15:06:28.367Z,79.19
2022-12-03T15:09:37.376Z,79.02
2022-12-03T15:12:46.385Z,79.25
2022-12-03T15:15:55.376Z,79.29
2022-12-03T15:19:04.376Z,79.56
2022-12-03T15:22:13.688Z,79.81
2022-12-03T15:25:27.400Z,80.04
2022-12-03T15:28:46.690Z,80.75
2022-12-03T15:32:01.392Z,80.79
2022-12-03T15:35:10.379Z,80.70
2022-12-03T15:38:19.390Z,80.87
2022-12-03T15:41:48.389Z,81.34
2022-12-03T15:44:58.370Z,81.68
2022-12-03T15:48:08.120Z,81.24
2022-12-03T15:51:16.678Z,81.33
2022-12-03T15:54:25.377Z,81.62
2022-12-03T15:57:34.367Z,82.03
2022-12-03T16:00:44.422Z,82.73
2022-12-03T16:03:53.306Z,82.18
2022-12-03T16:07:02.309Z,81.96
2022-12-03T16:10:12.154Z,81.60
2022-12-03T16:13:20.305Z,82.17
2022-12-03T16:16:29.457Z,82.64
2022-12-03T16:19:38.304Z,82.87
2022-12-03T16:22:47.412Z,82.16
2022-12-03T16:25:57.207Z,83.51
2022-12-03T16:29:05.422Z,83.59
2022-12-03T16:32:14.566Z,84.44
2022-12-03T16:35:23.302Z,84.36
2022-12-03T16:38:38.605Z,84.73
2022-12-03T16:41:55.594Z,84.79
2022-12-03T16:45:11.416Z,86.79
2022-12-03T16:48:20.411Z,83.67
2022-12-03T16:51:43.225Z,82.94
2022-12-03T16:54:58.281Z,83.72
2022-12-03T16:58:07.371Z,82.80
2022-12-03T17:01:17.162Z,82.70
2022-12-03T17:04:26.307Z,82.34
2022-12-03T17:07:42.729Z,83.07
2022-12-03T17:11:00.843Z,83.29
2022-12-03T17:14:13.374Z,83.67
2022-12-03T17:17:28.075Z,84.23
2022-12-03T17:20:51.343Z,83.88
2022-12-03T17:27:44.873Z,85.80
2022-12-03T17:31:01.468Z,85.51
2022-12-03T17:34:10.371Z,85.30
2022-12-03T17:37:18.837Z,85.76
2022-12-03T17:40:28.380Z,84.71
2022-12-03T17:43:37.373Z,85.15
2022-12-03T17:46:46.476Z,85.70
2022-12-03T17:49:56.702Z,85.59
2022-12-03T17:53:13.105Z,85.58
2022-12-03T17:56:27.834Z,85.35
2022-12-03T17:59:40.431Z,86.06
2022-12-03T18:02:52.264Z,86.25
2022-12-03T18:06:01.370Z,86.19
2022-12-03T18:09:10.368Z,85.56
2022-12-03T18:12:17.960Z,85.76
2022-12-03T18:15:28.369Z,85.33
2022-12-03T18:18:36.025Z,85.72
2022-12-03T18:21:46.368Z,85.69
2022-12-03T18:24:55.372Z,85.81
2022-12-03T18:28:04.376Z,85.56
2022-12-03T18:31:28.129Z,85.23
2022-12-03T18:34:43.367Z,84.96
2022-12-03T18:37:53.099Z,85.27
2022-12-03T18:41:01.368Z,85.07
2022-12-03T18:44:11.718Z,85.08
2022-12-03T18:47:28.233Z,85.42
2022-12-03T18:50:42.131Z,85.09
2022-12-03T18:53:57.134Z,85.05
2022-12-03T18:57:07.366Z,85.07
2022-12-03T19:00:16.367Z,85.01
2022-12-03T19:03:25.408Z,85.17
2022-12-03T19:06:35.408Z,85.24
2022-12-03T19:09:47.951Z,85.50
2022-12-03T19:13:04.238Z,85.71
2022-12-03T19:16:18.162Z,85.23
2022-12-03T19:19:31.368Z,85.58
2022-12-03T19:22:40.367Z,85.66
2022-12-03T19:26:05.647Z,85.57
2022-12-03T19:29:19.370Z,85.73
2022-12-03T19:32:28.367Z,85.88
2022-12-03T19:35:41.393Z,85.80
2022-12-03T19:38:56.680Z,85.74
2022-12-03T19:42:10.578Z,85.68
2022-12-03T19:45:24.075Z,85.50
2022-12-03T19:48:34.368Z,86.11
2022-12-03T19:51:43.366Z,85.92
2022-12-03T19:55:01.070Z,85.62
2022-12-03T19:58:17.392Z,86.50
2022-12-03T20:01:31.421Z,86.05
2022-12-03T20:04:40.366Z,86.05
2022-12-03T20:07:49.400Z,85.78
2022-12-03T20:10:58.368Z,86.55
2022-12-03T20:14:18.834Z,85.87
2022-12-03T20:17:33.620Z,86.13
2022-12-03T20:20:46.368Z,85.77
2022-12-03T20:23:55.366Z,86.12
2022-12-03T20:27:04.372Z,86.51
2022-12-03T20:30:13.368Z,86.61
2022-12-03T20:33:22.367Z,86.39
2022-12-03T20:36:31.369Z,86.59
2022-12-03T20:39:40.369Z,86.44
2022-12-03T20:42:50.198Z,86.52
2022-12-03T20:46:02.703Z,86.38
2022-12-03T20:49:19.568Z,86.38
2022-12-03T20:52:34.224Z,85.99
2022-12-03T20:55:46.368Z,86.00
2022-12-03T20:58:55.682Z,85.85
2022-12-03T21:02:04.429Z,86.03
2022-12-03T21:05:13.367Z,86.12
2022-12-03T21:08:40.226Z,86.39
2022-12-03T21:11:52.367Z,86.48
2022-12-03T21:15:01.472Z,86.16
2022-12-03T21:18:20.183Z,86.16
2022-12-03T21:21:35.501Z,86.61
2022-12-03T21:24:49.369Z,86.81
2022-12-03T21:27:58.369Z,86.95
2022-12-03T21:31:08.151Z,87.00
2022-12-03T21:34:17.302Z,87.24
2022-12-03T21:37:27.022Z,86.77
2022-12-03T21:40:35.414Z,87.27
2022-12-03T21:43:44.410Z,87.02
2022-12-03T21:47:09.146Z,87.15
2022-12-03T21:50:22.367Z,87.13
2022-12-03T21:53:31.369Z,86.82
2022-12-03T21:56:40.367Z,87.79
2022-12-03T21:59:48.851Z,87.27
2022-12-03T22:02:58.455Z,87.19
2022-12-03T22:06:07.368Z,86.83
2022-12-03T22:09:20.552Z,87.17
2022-12-03T22:12:41.922Z,86.81
2022-12-03T22:15:55.318Z,87.13
2022-12-03T22:19:04.368Z,86.70
2022-12-03T22:22:13.373Z,86.89
2022-12-03T22:25:22.370Z,87.10
2022-12-03T22:28:31.369Z,87.07
2022-12-03T22:31:40.368Z,87.12
2022-12-03T22:34:50.407Z,86.80
2022-12-03T22:37:59.304Z,88.29
2022-12-03T22:41:12.112Z,87.97
2022-12-03T22:44:25.327Z,87.29
2022-12-03T22:47:41.070Z,88.03
2022-12-03T22:50:55.364Z,87.57
2022-12-03T22:54:15.004Z,86.54
2022-12-03T22:57:29.135Z,87.24
2022-12-03T23:00:43.366Z,88.52
2022-12-03T23:03:52.418Z,86.95
2022-12-03T23:07:01.366Z,86.95
2022-12-03T23:10:10.366Z,86.28
2022-12-03T23:13:20.718Z,87.39
2022-12-03T23:16:37.029Z,87.77
2022-12-03T23:19:53.916Z,87.47
2022-12-03T23:23:07.259Z,87.92
2022-12-03T23:26:17.100Z,88.20
2022-12-03T23:29:26.095Z,87.89
2022-12-03T23:32:35.406Z,87.70
2022-12-03T23:35:44.405Z,87.58
2022-12-03T23:38:53.412Z,87.76
2022-12-03T23:42:02.708Z,87.56
2022-12-03T23:45:11.407Z,87.46
2022-12-03T23:48:20.409Z,87.76
2022-12-03T23:51:29.718Z,87.90
2022-12-03T23:54:38.717Z,87.89
2022-12-03T23:57:47.408Z,88.02
